Time;durP1;ratioP1;P1;durP2;ratioP2;P2;SDS_P1;SDS_P2;PMS_P1;PMS_P2;Temp;Humidity;BMP_temperature;BMP_pressure;BME280_temperature;BME280_humidity;BME280_pressure;Samples;Min_cycle;Max_cycle;Signal;HPM_P1;HPM_P2
2021/08/28 00:00:56;;;;;;;7.43;5.45;;;409.70;2252.80;;;;;;5032422;28;20018;-70
2021/08/28 00:03:22;;;;;;;6.53;5.45;;;409.70;2252.80;;;;;;5032721;28;20037;-70
2021/08/28 00:05:49;;;;;;;8.65;4.97;;;409.70;2252.80;;;;;;5014775;28;20525;-69
2021/08/28 00:08:16;;;;;;;5.90;4.93;;;409.70;2252.80;;;;;;5032898;28;20026;-67
2021/08/28 00:10:42;;;;;;;9.00;4.70;;;409.70;2252.80;;;;;;5033536;28;20498;-68
2021/08/28 00:13:08;;;;;;;8.65;4.93;;;409.60;2278.40;;;;;;5033472;28;20057;-71
2021/08/28 00:15:34;;;;;;;4.82;4.32;;;409.60;2278.40;;;;;;5015672;28;20029;-72
2021/08/28 00:17:59;;;;;;;4.88;4.13;;;409.60;2252.80;;;;;;5032349;28;20495;-70
2021/08/28 00:20:25;;;;;;;4.75;3.58;;;409.70;2252.80;;;;;;5032586;28;20025;-71
2021/08/28 00:22:51;;;;;;;4.40;4.00;;;409.60;2278.40;;;;;;5032196;28;20053;-65
2021/08/28 00:25:17;;;;;;;5.45;4.30;;;409.60;2278.40;;;;;;5036098;28;20038;-72
2021/08/28 00:27:43;;;;;;;4.15;3.85;;;409.60;2278.40;;;;;;5035703;28;20029;-69
2021/08/28 00:30:10;;;;;;;4.22;3.83;;;409.60;2278.40;;;;;;5035836;28;20044;-72
2021/08/28 00:32:36;;;;;;;3.70;3.30;;;409.60;2278.40;;;;;;5035908;28;20071;-64
2021/08/28 00:35:02;;;;;;;4.03;3.65;;;409.70;2252.80;;;;;;5036229;28;20022;-72
2021/08/28 00:37:28;;;;;;;3.65;3.35;;;409.60;2252.80;;;;;;5035347;28;20033;-64
2021/08/28 00:39:54;;;;;;;2.80;2.55;;;409.60;2278.40;;;;;;5036961;28;20352;-63
2021/08/28 00:42:20;;;;;;;3.00;2.70;;;409.60;2252.80;;;;;;5036590;28;20024;-70
2021/08/28 00:44:45;;;;;;;2.80;2.58;;;409.60;2278.40;;;;;;5036170;28;20036;-64
2021/08/28 00:47:21;;;;;;;3.03;2.72;;;409.60;2252.80;;;;;;5035414;28;20240;-67
2021/08/28 00:49:48;;;;;;;3.33;2.55;;;409.60;2252.80;;;;;;5035682;28;20471;-71
2021/08/28 00:52:15;;;;;;;4.97;3.42;;;384.90;2227.20;;;;;;5035744;28;20022;-70
2021/08/28 00:54:41;;;;;;;3.42;3.13;;;409.60;2252.80;;;;;;5035764;28;20025;-71
2021/08/28 00:57:10;;;;;;;4.90;2.90;;;384.90;2252.80;;;;;;5035475;28;20163;-72
2021/08/28 00:59:36;;;;;;;3.10;2.80;;;384.90;2227.20;;;;;;5035883;28;20017;-69
2021/08/28 01:02:06;;;;;;;3.83;3.03;;;384.90;2227.20;;;;;;5035153;28;20033;-66
2021/08/28 01:04:42;;;;;;;3.53;3.00;;;384.80;2252.80;;;;;;5032881;28;20021;-69
2021/08/28 01:07:25;;;;;;;3.13;2.83;;;384.80;2227.20;;;;;;5024936;28;20073;-70
2021/08/28 01:09:55;;;;;;;4.90;3.25;;;384.80;2227.20;;;;;;5016858;28;20023;-71
2021/08/28 01:12:26;;;;;;;4.43;2.90;;;384.80;2227.20;;;;;;5026870;28;20109;-65
2021/08/28 01:14:56;;;;;;;2.75;2.55;;;384.80;2227.20;;;;;;4997819;28;20033;-72
2021/08/28 01:17:27;;;;;;;5.13;2.60;;;384.80;2201.60;;;;;;5025769;28;20141;-71
2021/08/28 01:19:58;;;;;;;3.08;2.47;;;384.80;2227.20;;;;;;5021952;28;20030;-70
2021/08/28 01:22:25;;;;;;;3.67;2.67;;;384.80;2201.60;;;;;;5033094;28;20024;-72
2021/08/28 01:24:51;;;;;;;3.05;2.70;;;384.70;2201.60;;;;;;5035616;28;20108;-72
2021/08/28 01:27:43;;;;;;;5.03;2.90;;;384.70;2227.20;;;;;;5035811;28;20025;-70
2021/08/28 01:30:10;;;;;;;3.00;2.65;;;384.70;2201.60;;;;;;5035714;28;20485;-67
2021/08/28 01:32:38;;;;;;;3.83;3.35;;;384.70;2227.20;;;;;;5035488;28;20061;-64
2021/08/28 01:35:05;;;;;;;3.33;3.03;;;384.70;2227.20;;;;;;5034866;28;20100;-73
2021/08/28 01:37:30;;;;;;;3.50;3.20;;;384.70;2227.20;;;;;;5035532;28;20037;-70
2021/08/28 01:40:00;;;;;;;3.97;2.80;;;384.60;2227.20;;;;;;5035653;28;20021;-65
2021/08/28 01:42:31;;;;;;;3.50;3.20;;;384.60;2227.20;;;;;;5035532;28;20101;-64
2021/08/28 01:44:57;;;;;;;5.20;3.40;;;384.60;2227.20;;;;;;5035096;28;20100;-72
2021/08/28 01:47:25;;;;;;;6.03;4.50;;;384.60;2227.20;;;;;;5035184;28;20017;-65
2021/08/28 01:49:52;;;;;;;8.20;4.38;;;384.50;2227.20;;;;;;5017368;28;20029;-72
2021/08/28 01:52:19;;;;;;;5.95;3.63;;;384.50;2252.80;;;;;;5035798;28;20057;-72
2021/08/28 01:54:45;;;;;;;4.35;3.53;;;384.50;2227.20;;;;;;5034632;28;20091;-64
2021/08/28 01:57:11;;;;;;;3.90;3.50;;;384.50;2227.20;;;;;;5034834;28;20471;-71
2021/08/28 01:59:38;;;;;;;3.05;2.85;;;384.50;2227.20;;;;;;5035242;28;20033;-64
2021/08/28 02:02:03;;;;;;;3.65;3.35;;;384.50;2227.20;;;;;;5035123;28;20095;-72
2021/08/28 02:04:29;;;;;;;3.85;3.35;;;384.40;2227.20;;;;;;5035197;28;20375;-73
2021/08/28 02:07:04;;;;;;;3.28;2.97;;;384.40;2227.20;;;;;;5034632;28;20084;-64
2021/08/28 02:09:55;;;;;;;3.90;2.90;;;384.40;2201.60;;;;;;5035406;28;20033;-72
2021/08/28 02:12:32;;;;;;;3.33;3.05;;;384.40;2227.20;;;;;;5034989;28;20371;-72
2021/08/28 02:15:34;;;;;;;2.88;2.67;;;384.30;2201.60;;;;;;5034815;28;20037;-64
2021/08/28 02:18:11;;;;;;;2.80;2.60;;;384.30;2201.60;;;;;;4973919;28;20039;-65
2021/08/28 02:20:43;;;;;;;2.70;2.50;;;384.20;2201.60;;;;;;4957673;28;20039;-68
2021/08/28 02:23:14;;;;;;;3.42;2.75;;;384.10;2201.60;;;;;;4973878;28;20449;-72
2021/08/28 02:25:57;;;;;;;2.60;2.40;;;384.10;2201.60;;;;;;4973762;28;20467;-64
2021/08/28 02:28:32;;;;;;;2.55;2.35;;;384.10;2201.60;;;;;;4973910;28;20572;-64
2021/08/28 02:31:00;;;;;;;2.45;2.25;;;384.00;2201.60;;;;;;4958419;28;20058;-66
2021/08/28 02:33:26;;;;;;;2.45;2.25;;;384.00;2201.60;;;;;;4957545;28;20046;-64
2021/08/28 02:35:54;;;;;;;2.42;2.22;;;384.00;2201.60;;;;;;4973834;28;20460;-71
2021/08/28 02:38:20;;;;;;;2.47;2.28;;;384.00;2201.60;;;;;;4973646;28;20046;-64
2021/08/28 02:40:48;;;;;;;2.55;2.35;;;384.00;2201.60;;;;;;4973566;28;20058;-71
2021/08/28 02:43:16;;;;;;;2.45;2.25;;;384.00;2201.60;;;;;;4973175;28;20030;-72
2021/08/28 02:45:43;;;;;;;2.80;2.22;;;384.00;2176.00;;;;;;4973489;28;20043;-64
2021/08/28 02:48:10;;;;;;;3.40;2.75;;;359.30;2201.60;;;;;;4972560;28;20058;-64
2021/08/28 02:50:38;;;;;;;3.15;2.35;;;359.30;2176.00;;;;;;4973028;28;20026;-70
2021/08/28 02:53:06;;;;;;;3.00;2.70;;;359.30;2201.60;;;;;;5032063;28;20099;-72
2021/08/28 02:55:34;;;;;;;3.50;3.20;;;359.30;2176.00;;;;;;5034189;28;20159;-64
2021/08/28 02:58:00;;;;;;;3.15;2.85;;;359.20;2201.60;;;;;;5033662;28;20033;-64
2021/08/28 03:00:26;;;;;;;4.20;2.92;;;359.20;2201.60;;;;;;5033581;28;20475;-64
2021/08/28 03:02:53;;;;;;;3.33;3.03;;;359.20;2201.60;;;;;;5033123;28;20040;-72
2021/08/28 03:05:19;;;;;;;4.50;3.10;;;359.20;2201.60;;;;;;5015269;28;20037;-72
2021/08/28 03:07:46;;;;;;;3.70;3.17;;;359.20;2201.60;;;;;;5033698;28;20167;-64
2021/08/28 03:10:13;;;;;;;18.23;3.60;;;359.20;2201.60;;;;;;5033808;28;20040;-71
2021/08/28 03:12:39;;;;;;;4.95;2.97;;;359.20;2201.60;;;;;;5016230;28;20108;-64
2021/08/28 03:15:07;;;;;;;9.43;3.80;;;359.30;2201.60;;;;;;5033835;28;20049;-65
2021/08/28 03:17:34;;;;;;;25.67;4.80;;;359.20;2201.60;;;;;;5033535;28;20076;-65
2021/08/28 03:20:02;;;;;;;4.78;3.05;;;359.30;2201.60;;;;;;5033487;28;20117;-64
2021/08/28 03:22:28;;;;;;;5.00;3.08;;;359.30;2176.00;;;;;;5033809;28;20025;-64
2021/08/28 03:24:55;;;;;;;16.38;7.65;;;359.30;2201.60;;;;;;5033115;28;20041;-64
2021/08/28 03:27:21;;;;;;;13.27;5.55;;;359.20;2176.00;;;;;;5033718;28;20026;-71
2021/08/28 03:29:49;;;;;;;7.30;4.15;;;359.30;2176.00;;;;;;5034053;28;20056;-64
2021/08/28 03:32:16;;;;;;;7.47;4.15;;;359.20;2176.00;;;;;;5033569;28;20017;-71
2021/08/28 03:34:42;;;;;;;11.23;5.05;;;359.20;2201.60;;;;;;5033648;28;20141;-70
2021/08/28 03:37:09;;;;;;;18.20;8.90;;;359.20;2201.60;;;;;;5033227;28;20425;-64
2021/08/28 03:39:38;;;;;;;26.90;12.18;;;359.20;2201.60;;;;;;5033565;28;20463;-64
2021/08/28 03:42:05;;;;;;;23.20;11.57;;;359.20;2201.60;;;;;;5033953;28;20029;-64
2021/08/28 03:44:36;;;;;;;22.67;10.57;;;359.20;2201.60;;;;;;5033061;28;20202;-65
2021/08/28 03:47:02;;;;;;;13.05;6.22;;;359.20;2201.60;;;;;;5033594;28;20029;-72
2021/08/28 03:49:28;;;;;;;13.43;5.15;;;359.20;2201.60;;;;;;5032771;28;20467;-64
2021/08/28 03:51:53;;;;;;;8.43;4.57;;;359.20;2201.60;;;;;;5033671;28;20371;-72
2021/08/28 03:54:19;;;;;;;5.80;4.10;;;359.20;2201.60;;;;;;5033476;28;20434;-72
2021/08/28 03:56:45;;;;;;;5.47;4.13;;;359.20;2227.20;;;;;;5033146;28;20025;-69
2021/08/28 03:59:10;;;;;;;9.13;4.95;;;359.20;2201.60;;;;;;5035218;28;20033;-64
2021/08/28 04:01:36;;;;;;;7.97;4.65;;;359.20;2201.60;;;;;;5037619;28;20037;-64
2021/08/28 04:04:02;;;;;;;7.50;4.47;;;359.20;2201.60;;;;;;5037381;28;20157;-71
2021/08/28 04:06:27;;;;;;;10.05;5.60;;;359.30;2201.60;;;;;;5036858;28;20550;-64
2021/08/28 04:08:53;;;;;;;7.28;5.00;;;359.30;2227.20;;;;;;5037062;28;20026;-71
2021/08/28 04:11:19;;;;;;;9.20;4.93;;;359.30;2227.20;;;;;;5037229;28;20026;-65
2021/08/28 04:13:44;;;;;;;11.70;5.05;;;359.20;2201.60;;;;;;5037157;28;20025;-64
2021/08/28 04:16:10;;;;;;;10.13;5.40;;;359.20;2227.20;;;;;;5036946;28;20045;-71
2021/08/28 04:18:36;;;;;;;8.40;5.05;;;359.30;2227.20;;;;;;5037161;28;20477;-70
2021/08/28 04:21:02;;;;;;;8.95;4.32;;;359.30;2227.20;;;;;;5036985;28;20030;-64
2021/08/28 04:23:27;;;;;;;5.00;4.15;;;359.30;2227.20;;;;;;5036891;28;20529;-64
2021/08/28 04:25:53;;;;;;;7.65;4.60;;;359.30;2227.20;;;;;;5037067;28;20025;-72
2021/08/28 04:28:19;;;;;;;8.25;4.80;;;359.30;2227.20;;;;;;5037026;28;20036;-72
2021/08/28 04:30:44;;;;;;;9.93;4.90;;;359.30;2227.20;;;;;;5037036;28;20100;-67
2021/08/28 04:33:11;;;;;;;6.22;4.20;;;359.30;2252.80;;;;;;5037049;28;20036;-64
2021/08/28 04:35:37;;;;;;;7.35;4.72;;;359.30;2252.80;;;;;;5036811;28;20100;-69
2021/08/28 04:38:03;;;;;;;8.10;5.05;;;384.00;2252.80;;;;;;5036692;28;20482;-64
2021/08/28 04:40:29;;;;;;;7.35;4.18;;;384.00;2252.80;;;;;;5036631;28;20022;-69
2021/08/28 04:42:54;;;;;;;7.32;4.30;;;384.00;2252.80;;;;;;5036829;28;20083;-64
2021/08/28 04:45:20;;;;;;;5.35;4.13;;;384.10;2227.20;;;;;;5036490;28;20025;-72
2021/08/28 04:47:46;;;;;;;7.38;4.63;;;384.00;2252.80;;;;;;5037098;28;20021;-72
2021/08/28 04:50:13;;;;;;;8.70;4.05;;;384.00;2227.20;;;;;;5036189;28;20036;-64
2021/08/28 04:52:38;;;;;;;9.88;5.72;;;384.10;2227.20;;;;;;5036610;28;20022;-65
2021/08/28 04:55:05;;;;;;;11.23;5.95;;;384.10;2227.20;;;;;;5036465;28;20517;-64
2021/08/28 04:57:31;;;;;;;11.38;6.10;;;384.10;2227.20;;;;;;5036068;28;20033;-64
2021/08/28 04:59:56;;;;;;;6.18;4.82;;;384.10;2227.20;;;;;;5036249;28;20022;-64
2021/08/28 05:02:22;;;;;;;7.43;4.10;;;384.10;2227.20;;;;;;5036755;28;20478;-71
2021/08/28 05:04:48;;;;;;;9.43;4.97;;;384.20;2227.20;;;;;;5036332;28;20056;-64
2021/08/28 05:07:14;;;;;;;9.25;5.07;;;384.20;2252.80;;;;;;5035336;28;20136;-65
2021/08/28 05:09:39;;;;;;;9.75;5.45;;;384.30;2227.20;;;;;;5035657;28;20033;-71
2021/08/28 05:12:05;;;;;;;16.17;4.63;;;384.40;2227.20;;;;;;5036277;28;20088;-64
2021/08/28 05:14:31;;;;;;;6.65;4.38;;;384.40;2252.80;;;;;;5035476;28;20029;-64
2021/08/28 05:16:57;;;;;;;5.70;3.95;;;384.40;2252.80;;;;;;5035750;28;20043;-64
2021/08/28 05:19:22;;;;;;;5.60;4.05;;;384.50;2252.80;;;;;;5017732;28;20045;-64
2021/08/28 05:21:48;;;;;;;9.15;5.07;;;384.50;2227.20;;;;;;5035638;28;20032;-72
2021/08/28 05:24:14;;;;;;;5.85;5.05;;;384.50;2252.80;;;;;;5017757;28;20037;-71
2021/08/28 05:26:40;;;;;;;7.10;4.90;;;384.50;2252.80;;;;;;5035249;28;20056;-71
2021/08/28 05:29:06;;;;;;;6.50;4.82;;;384.60;2252.80;;;;;;5017837;28;20029;-64
2021/08/28 05:31:32;;;;;;;9.80;5.53;;;384.50;2227.20;;;;;;5036258;28;20370;-73
2021/08/28 05:33:58;;;;;;;4.82;4.18;;;384.70;2227.20;;;;;;5035823;28;20121;-72
2021/08/28 05:36:24;;;;;;;6.05;4.30;;;384.70;2227.20;;;;;;5035590;28;20105;-64
2021/08/28 05:38:50;;;;;;;7.22;4.10;;;384.70;2227.20;;;;;;5035722;28;20112;-73
2021/08/28 05:41:16;;;;;;;6.53;4.47;;;384.80;2227.20;;;;;;5035881;28;20018;-72
2021/08/28 05:43:41;;;;;;;5.45;3.97;;;384.80;2227.20;;;;;;5036109;28;20033;-64
2021/08/28 05:46:07;;;;;;;6.57;5.90;;;384.80;2227.20;;;;;;5035573;28;20455;-69
2021/08/28 05:48:33;;;;;;;5.88;5.28;;;384.90;2227.20;;;;;;5017112;28;20055;-70
2021/08/28 05:50:59;;;;;;;6.57;5.00;;;409.60;2252.80;;;;;;5035044;28;20048;-71
2021/08/28 05:53:25;;;;;;;8.63;5.00;;;409.70;2252.80;;;;;;5035261;28;20418;-72
2021/08/28 05:55:50;;;;;;;6.40;5.70;;;409.70;2252.80;;;;;;5034658;28;20025;-64
2021/08/28 05:58:16;;;;;;;8.30;5.93;;;409.70;2252.80;;;;;;5035137;28;20033;-72
2021/08/28 06:00:42;;;;;;;6.93;5.95;;;409.80;2252.80;;;;;;5035263;28;20032;-65
2021/08/28 06:03:07;;;;;;;6.80;6.10;;;409.90;2252.80;;;;;;5034878;28;20383;-68
2021/08/28 06:05:33;;;;;;;10.85;8.38;;;410.00;2252.80;;;;;;5034741;28;20463;-66
2021/08/28 06:07:59;;;;;;;11.48;8.95;;;410.10;2252.80;;;;;;5035127;28;20110;-73
2021/08/28 06:10:25;;;;;;;13.82;8.57;;;410.20;2252.80;;;;;;5017061;28;20072;-70
2021/08/28 06:12:50;;;;;;;11.98;8.18;;;410.40;2227.20;;;;;;5035083;28;20086;-72
2021/08/28 06:15:16;;;;;;;12.60;8.55;;;410.50;2227.20;;;;;;5034982;28;20029;-66
2021/08/28 06:17:42;;;;;;;9.68;7.47;;;435.20;2227.20;;;;;;5034483;28;20049;-66
2021/08/28 06:20:08;;;;;;;8.50;7.38;;;435.30;2201.60;;;;;;5034538;28;20371;-66
2021/08/28 06:22:34;;;;;;;7.97;6.93;;;435.40;2201.60;;;;;;5035080;28;20026;-65
2021/08/28 06:24:59;;;;;;;6.90;6.03;;;435.50;2201.60;;;;;;5034721;28;20021;-73
2021/08/28 06:27:25;;;;;;;9.98;6.78;;;435.50;2201.60;;;;;;5034810;28;20021;-65
2021/08/28 06:29:51;;;;;;;8.65;6.50;;;435.60;2201.60;;;;;;5034878;28;20025;-66
2021/08/28 06:32:17;;;;;;;6.95;6.15;;;435.40;2176.00;;;;;;5034005;28;20021;-72
2021/08/28 06:34:43;;;;;;;11.73;7.07;;;435.50;2176.00;;;;;;5034630;28;20029;-72
2021/08/28 06:37:08;;;;;;;7.68;6.43;;;435.50;2176.00;;;;;;5034412;28;20022;-66
2021/08/28 06:39:34;;;;;;;7.60;6.40;;;435.50;2176.00;;;;;;5034405;28;20029;-70
2021/08/28 06:42:01;;;;;;;6.72;6.13;;;435.50;2176.00;;;;;;5034170;28;20036;-72
2021/08/28 06:44:27;;;;;;;7.25;6.32;;;435.50;2176.00;;;;;;5016664;28;20483;-73
2021/08/28 06:46:52;;;;;;;8.27;6.18;;;435.50;2176.00;;;;;;5034668;28;20025;-73
2021/08/28 06:49:18;;;;;;;7.50;6.80;;;435.50;2176.00;;;;;;5034196;28;20375;-72
2021/08/28 06:51:44;;;;;;;7.93;6.82;;;435.60;2176.00;;;;;;5034127;28;20033;-66
2021/08/28 06:54:09;;;;;;;7.47;6.63;;;435.60;2201.60;;;;;;5016193;28;20033;-66
2021/08/28 06:56:35;;;;;;;7.68;6.88;;;435.60;2176.00;;;;;;5016193;28;20025;-66
2021/08/28 06:59:01;;;;;;;7.90;7.10;;;435.60;2176.00;;;;;;5034086;28;20033;-72
2021/08/28 07:01:27;;;;;;;7.53;6.80;;;435.60;2176.00;;;;;;5034184;28;20021;-71
2021/08/28 07:03:52;;;;;;;10.95;7.05;;;435.70;2176.00;;;;;;5034216;28;20079;-66
2021/08/28 07:06:18;;;;;;;8.95;7.47;;;435.90;2176.00;;;;;;5033909;28;20103;-66
2021/08/28 07:08:44;;;;;;;10.98;7.70;;;436.00;2150.40;;;;;;5033658;28;20030;-66
2021/08/28 07:11:10;;;;;;;12.18;8.48;;;436.00;2176.00;;;;;;5034151;28;20131;-72
2021/08/28 07:13:36;;;;;;;8.88;7.80;;;436.00;2150.40;;;;;;5016004;28;20068;-72
2021/08/28 07:16:02;;;;;;;11.10;8.43;;;460.80;2176.00;;;;;;5034459;28;20026;-73
2021/08/28 07:18:28;;;;;;;9.85;8.30;;;460.80;2176.00;;;;;;5033747;28;20356;-67
2021/08/28 07:20:53;;;;;;;13.07;7.70;;;460.90;2176.00;;;;;;5033608;28;20022;-66
2021/08/28 07:23:19;;;;;;;8.68;7.78;;;460.90;2150.40;;;;;;5033009;28;20022;-72
2021/08/28 07:25:45;;;;;;;8.70;7.78;;;460.90;2150.40;;;;;;5016036;28;20029;-73
2021/08/28 07:28:12;;;;;;;9.85;8.85;;;461.00;2150.40;;;;;;5033732;28;20467;-67
2021/08/28 07:30:39;;;;;;;9.98;8.90;;;460.90;2124.80;;;;;;5033852;28;20025;-73
2021/08/28 07:33:05;;;;;;;11.95;10.13;;;461.00;2124.80;;;;;;5033216;28;20025;-68
2021/08/28 07:35:31;;;;;;;13.85;10.55;;;461.00;2124.80;;;;;;5033609;28;20030;-73
2021/08/28 07:37:58;;;;;;;16.25;10.13;;;461.00;2124.80;;;;;;5033406;28;20539;-66
2021/08/28 07:40:24;;;;;;;15.20;10.80;;;461.00;2124.80;;;;;;5033726;28;20102;-70
2021/08/28 07:42:55;;;;;;;17.05;11.77;;;461.10;2150.40;;;;;;5033224;28;20026;-73
2021/08/28 07:45:22;;;;;;;15.98;11.50;;;461.00;2124.80;;;;;;5033586;28;20018;-73
2021/08/28 07:47:48;;;;;;;15.35;12.20;;;461.00;2124.80;;;;;;5033224;28;20056;-68
2021/08/28 07:50:14;;;;;;;15.98;12.40;;;461.00;2124.80;;;;;;5033328;28;20041;-69
2021/08/28 07:52:41;;;;;;;13.27;11.65;;;461.10;2124.80;;;;;;5033340;28;20030;-70
2021/08/28 07:55:07;;;;;;;15.75;11.10;;;461.10;2124.80;;;;;;5031745;28;20819;-73
2021/08/28 07:57:33;;;;;;;16.58;11.55;;;461.10;2124.80;;;;;;5005952;28;20026;-67
2021/08/28 07:59:59;;;;;;;13.23;11.55;;;461.20;2124.80;;;;;;4995760;28;20034;-72
2021/08/28 08:02:24;;;;;;;14.90;13.10;;;461.20;2124.80;;;;;;5013825;28;20026;-73
2021/08/28 08:04:50;;;;;;;14.70;12.38;;;461.20;2124.80;;;;;;5013619;28;20530;-72
2021/08/28 08:07:16;;;;;;;15.10;12.60;;;461.30;2099.20;;;;;;5029673;28;20053;-71
2021/08/28 08:09:42;;;;;;;19.83;13.52;;;461.30;2099.20;;;;;;5033287;28;20029;-72
2021/08/28 08:12:08;;;;;;;15.45;12.48;;;461.30;2124.80;;;;;;5033296;28;20029;-67
2021/08/28 08:14:34;;;;;;;75.75;45.85;;;461.30;2099.20;;;;;;5033227;28;20079;-66
2021/08/28 08:17:00;;;;;;;41.92;28.20;;;461.40;2099.20;;;;;;5032857;28;20030;-65
2021/08/28 08:19:26;;;;;;;26.13;18.48;;;461.40;2099.20;;;;;;5032996;28;20041;-73
2021/08/28 08:21:51;;;;;;;18.92;14.23;;;461.50;2099.20;;;;;;5032808;28;20057;-66
2021/08/28 08:24:17;;;;;;;19.92;12.75;;;461.50;2099.20;;;;;;5033063;28;20498;-66
2021/08/28 08:26:43;;;;;;;15.13;12.45;;;461.60;2099.20;;;;;;5015374;28;20029;-66
2021/08/28 08:29:08;;;;;;;14.75;11.98;;;461.60;2099.20;;;;;;5033288;28;20467;-73
2021/08/28 08:31:34;;;;;;;14.45;12.02;;;461.60;2099.20;;;;;;5033519;28;20104;-67
2021/08/28 08:34:00;;;;;;;13.60;12.15;;;461.60;2073.60;;;;;;5033077;28;20475;-66
2021/08/28 08:36:26;;;;;;;19.77;12.73;;;461.60;2099.20;;;;;;5032948;28;20371;-67
2021/08/28 08:38:52;;;;;;;17.88;11.70;;;461.70;2099.20;;;;;;5032891;28;20099;-66
2021/08/28 08:41:18;;;;;;;16.85;11.57;;;486.40;2073.60;;;;;;5033041;28;20036;-73
2021/08/28 08:43:46;;;;;;;13.15;10.30;;;486.40;2099.20;;;;;;5033144;28;20102;-66
2021/08/28 08:46:12;;;;;;;12.38;9.38;;;486.40;2099.20;;;;;;5016965;28;20028;-72
2021/08/28 08:48:40;;;;;;;10.45;9.30;;;486.40;2073.60;;;;;;5018375;28;20034;-73
2021/08/28 08:51:07;;;;;;;13.13;9.13;;;486.40;2073.60;;;;;;5035944;28;20029;-65
2021/08/28 08:53:34;;;;;;;10.68;9.52;;;461.70;2073.60;;;;;;5036566;28;20034;-66
2021/08/28 08:56:00;;;;;;;13.55;9.57;;;461.60;2073.60;;;;;;5036655;28;20021;-73
2021/08/28 08:58:26;;;;;;;10.07;9.05;;;461.70;2073.60;;;;;;5036444;28;20360;-73
2021/08/28 09:00:52;;;;;;;9.68;8.68;;;486.40;2073.60;;;;;;5035680;28;20371;-73
2021/08/28 09:03:17;;;;;;;8.93;8.00;;;486.40;2073.60;;;;;;5036030;28;20034;-74
2021/08/28 09:05:43;;;;;;;14.35;8.93;;;486.50;2048.00;;;;;;5018169;28;20052;-68
2021/08/28 09:08:09;;;;;;;9.52;8.45;;;486.50;2048.00;;;;;;5036009;28;20025;-66
2021/08/28 09:10:35;;;;;;;9.68;8.48;;;486.60;2022.40;;;;;;5035325;28;20382;-73
2021/08/28 09:13:21;;;;;;;9.40;8.43;;;486.60;2022.40;;;;;;5017423;28;20041;-66
2021/08/28 09:15:50;;;;;;;8.60;7.80;;;486.60;2022.40;;;;;;5036139;28;20375;-73
2021/08/28 09:18:16;;;;;;;11.50;8.82;;;486.60;2022.40;;;;;;5035863;28;20037;-68
2021/08/28 09:20:42;;;;;;;9.52;8.60;;;486.60;2022.40;;;;;;5035909;28;20402;-73
2021/08/28 09:23:11;;;;;;;19.63;12.90;;;486.70;2022.40;;;;;;5035939;28;20033;-75
2021/08/28 09:25:39;;;;;;;38.80;27.92;;;486.70;2022.40;;;;;;5018127;28;20067;-74
2021/08/28 09:28:06;;;;;;;19.70;14.48;;;486.80;2022.40;;;;;;5035849;28;20072;-74
2021/08/28 09:30:41;;;;;;;13.45;9.70;;;486.80;1996.80;;;;;;5035782;28;20116;-74
2021/08/28 09:33:15;;;;;;;10.73;8.43;;;486.90;1996.80;;;;;;5017926;28;20017;-65
2021/08/28 09:35:45;;;;;;;11.90;8.27;;;486.90;1996.80;;;;;;5035550;28;20057;-75
2021/08/28 09:38:14;;;;;;;8.90;7.95;;;486.90;1996.80;;;;;;5035736;28;20037;-65
2021/08/28 09:41:06;;;;;;;10.43;7.65;;;487.00;1996.80;;;;;;5035621;28;20025;-66
2021/08/28 09:43:31;;;;;;;11.82;7.30;;;487.10;1971.20;;;;;;5031827;28;20475;-75
2021/08/28 09:46:06;;;;;;;12.93;7.35;;;487.10;1971.20;;;;;;5034711;28;20125;-66
2021/08/28 09:48:31;;;;;;;10.02;6.90;;;487.10;1971.20;;;;;;5035358;28;20112;-74
2021/08/28 09:50:59;;;;;;;12.73;7.30;;;487.10;1971.20;;;;;;5017101;28;20124;-74
2021/08/28 09:53:27;;;;;;;8.43;7.55;;;487.10;1971.20;;;;;;5035454;28;20080;-66
2021/08/28 09:55:58;;;;;;;8.82;7.95;;;487.20;1971.20;;;;;;5034828;28;20021;-73
2021/08/28 09:58:26;;;;;;;10.23;7.65;;;487.20;1971.20;;;;;;5034889;28;20068;-74
2021/08/28 10:00:52;;;;;;;9.95;7.70;;;487.20;1971.20;;;;;;5035254;28;20026;-73
2021/08/28 10:03:26;;;;;;;19.58;13.75;;;487.20;1971.20;;;;;;5035021;28;20108;-74
2021/08/28 10:05:52;;;;;;;55.53;37.97;;;487.20;1971.20;;;;;;5034926;28;20041;-74
2021/08/28 10:08:20;;;;;;;31.27;21.33;;;487.20;1971.20;;;;;;5034522;28;20541;-65
2021/08/28 10:10:46;;;;;;;17.88;11.57;;;487.30;1971.20;;;;;;5035067;28;20025;-74
2021/08/28 10:13:12;;;;;;;31.20;8.15;;;512.00;1945.60;;;;;;5035460;28;20102;-66
2021/08/28 10:15:38;;;;;;;16.33;6.63;;;512.10;1945.60;;;;;;5035060;28;20443;-73
2021/08/28 10:18:05;;;;;;;12.35;6.88;;;512.30;1920.00;;;;;;5034774;28;20160;-66
2021/08/28 10:20:32;;;;;;;18.90;7.35;;;512.20;1920.00;;;;;;5035137;28;20101;-72
2021/08/28 10:23:07;;;;;;;12.40;5.97;;;512.40;1894.40;;;;;;5033915;28;20025;-65
2021/08/28 10:25:37;;;;;;;6.07;5.43;;;512.50;1868.80;;;;;;5024620;28;20080;-66
2021/08/28 10:28:04;;;;;;;6.80;5.85;;;512.80;1868.80;;;;;;5034114;28;20021;-72
2021/08/28 10:30:30;;;;;;;9.90;6.43;;;512.90;1868.80;;;;;;5034253;28;20028;-72
2021/08/28 10:32:56;;;;;;;8.73;5.80;;;537.60;1843.20;;;;;;5033868;28;20033;-67
2021/08/28 10:35:25;;;;;;;9.65;5.97;;;537.80;1843.20;;;;;;5034104;28;20022;-73
2021/08/28 10:37:51;;;;;;;7.18;5.43;;;537.90;1817.60;;;;;;5034226;28;20033;-73
2021/08/28 10:40:27;;;;;;;9.15;5.95;;;538.00;1817.60;;;;;;5034107;28;20072;-69
2021/08/28 10:42:59;;;;;;;7.65;6.32;;;538.10;1792.00;;;;;;5033998;28;20061;-70
2021/08/28 10:45:34;;;;;;;10.57;6.45;;;538.10;1792.00;;;;;;5013435;28;20113;-70
2021/08/28 10:48:02;;;;;;;7.47;6.60;;;538.20;1792.00;;;;;;5010802;28;20048;-70
2021/08/28 10:50:34;;;;;;;12.48;6.38;;;538.20;1766.40;;;;;;5033203;28;20140;-70
2021/08/28 10:53:01;;;;;;;10.13;6.78;;;538.30;1766.40;;;;;;5032696;28;20022;-71
2021/08/28 10:55:44;;;;;;;10.68;7.82;;;538.30;1715.20;;;;;;5025383;28;20025;-70
2021/08/28 10:58:17;;;;;;;9.90;7.03;;;538.40;1715.20;;;;;;5013253;28;20084;-70
2021/08/28 11:01:03;;;;;;;9.35;6.53;;;538.40;1740.80;;;;;;5033885;28;20029;-70
2021/08/28 11:03:35;;;;;;;9.55;6.85;;;538.50;1740.80;;;;;;5031937;28;20046;-71
2021/08/28 11:06:15;;;;;;;10.55;7.75;;;538.50;1715.20;;;;;;5033221;28;20394;-71
2021/08/28 11:08:50;;;;;;;9.25;7.85;;;563.30;1740.80;;;;;;5032528;28;20037;-69
2021/08/28 11:11:27;;;;;;;10.25;7.55;;;563.20;1740.80;;;;;;5031436;28;20063;-71
2021/08/28 11:14:03;;;;;;;9.70;8.13;;;563.30;1715.20;;;;;;5033393;28;20061;-69
2021/08/28 11:16:44;;;;;;;8.40;6.85;;;563.40;1715.20;;;;;;5033415;28;20029;-71
2021/08/28 11:19:12;;;;;;;9.02;7.40;;;563.60;1715.20;;;;;;5033185;28;20033;-71
2021/08/28 11:21:45;;;;;;;8.77;7.70;;;563.80;1689.60;;;;;;5033221;28;20100;-70
2021/08/28 11:24:15;;;;;;;8.00;7.20;;;563.90;1664.00;;;;;;5030470;28;20037;-70
2021/08/28 11:26:41;;;;;;;8.20;7.35;;;564.10;1689.60;;;;;;5033233;28;20333;-70
2021/08/28 11:29:45;;;;;;;11.27;9.10;;;588.80;1664.00;;;;;;5014276;28;20080;-70
2021/08/28 11:32:14;;;;;;;10.20;8.57;;;564.10;1664.00;;;;;;4953292;28;20034;-71
2021/08/28 11:34:46;;;;;;;10.50;8.70;;;564.00;1689.60;;;;;;4971962;28;20524;-70
2021/08/28 11:37:27;;;;;;;9.30;8.30;;;563.90;1689.60;;;;;;4971916;28;20162;-70
2021/08/28 11:39:54;;;;;;;10.30;7.97;;;563.90;1689.60;;;;;;4947176;28;20063;-69
2021/08/28 11:42:20;;;;;;;10.82;8.82;;;563.80;1715.20;;;;;;4962530;28;20031;-71
2021/08/28 11:44:51;;;;;;;11.02;8.43;;;563.80;1715.20;;;;;;4953559;28;20082;-71
2021/08/28 11:47:18;;;;;;;9.90;7.63;;;563.90;1715.20;;;;;;4952846;28;20027;-65
2021/08/28 11:49:44;;;;;;;8.32;7.53;;;563.80;1689.60;;;;;;4956744;28;20038;-70
2021/08/28 11:52:10;;;;;;;10.52;7.18;;;563.80;1689.60;;;;;;4972603;28;20035;-71
2021/08/28 11:54:36;;;;;;;8.00;7.20;;;563.90;1689.60;;;;;;4969028;28;20396;-71
2021/08/28 11:57:02;;;;;;;9.43;8.23;;;564.00;1689.60;;;;;;4945087;28;20034;-67
2021/08/28 11:59:36;;;;;;;7.93;7.13;;;563.90;1689.60;;;;;;4952772;28;20027;-71
2021/08/28 12:02:03;;;;;;;9.85;7.40;;;563.90;1664.00;;;;;;4960387;28;20045;-69
2021/08/28 12:04:32;;;;;;;8.20;7.13;;;563.90;1664.00;;;;;;4958376;28;20027;-68
2021/08/28 12:06:58;;;;;;;11.38;6.65;;;563.80;1689.60;;;;;;4963799;28;20110;-71
2021/08/28 12:09:25;;;;;;;8.65;6.50;;;563.70;1715.20;;;;;;5027754;28;20034;-68
2021/08/28 12:11:52;;;;;;;8.73;6.65;;;563.70;1689.60;;;;;;5033019;28;20037;-71
2021/08/28 12:14:19;;;;;;;7.93;7.10;;;563.60;1689.60;;;;;;5032899;28;20026;-70
2021/08/28 12:16:46;;;;;;;9.27;7.35;;;563.60;1715.20;;;;;;5040054;28;20033;-69